Time;durP1;ratioP1;P1;durP2;ratioP2;P2;SDS_P1;SDS_P2;PMS_P1;PMS_P2;Temp;Humidity;BMP_temperature;BMP_pressure;BME280_temperature;BME280_humidity;BME280_pressure;Samples;Min_cycle;Max_cycle;Signal;HPM_P1;HPM_P2
2023/12/08 00:02:22;;;;;;;;;;;;;;;0.98;81.84;101853.61;106718;1258;72433;-79
2023/12/08 00:04:49;;;;;;;;;;;;;;;0.97;81.76;101854.91;106739;1257;61132;-77
2023/12/08 00:07:15;;;;;;;;;;;;;;;0.94;81.79;101852.48;107035;1259;125524;-85
2023/12/08 00:09:42;;;;;;;;;;;;;;;0.95;81.71;101855.65;106794;1255;74650;-78
2023/12/08 00:12:09;;;;;;;;;;;;;;;0.96;81.76;101854.35;106785;1254;124696;-78
2023/12/08 00:14:36;;;;;;;;;;;;;;;0.96;81.74;101854.70;106622;1258;73252;-78
2023/12/08 00:17:03;;;;;;;;;;;;;;;0.99;81.87;101848.32;106643;1258;61714;-78
2023/12/08 00:19:30;;;;;;;;;;;;;;;1.00;81.79;101845.30;106716;1259;125318;-86
2023/12/08 00:21:56;;;;;;;;;;;;;;;1.03;81.98;101849.30;106740;1256;75053;-85
2023/12/08 00:24:23;;;;;;;;;;;;;;;1.03;81.90;101849.84;106834;1253;124538;-86
2023/12/08 00:26:49;;;;;;;;;;;;;;;1.03;81.71;101852.80;106547;1254;71453;-86
2023/12/08 00:29:19;;;;;;;;;;;;;;;1.04;81.70;101858.27;106706;1254;61261;-86
2023/12/08 00:31:46;;;;;;;;;;;;;;;1.06;81.70;101860.65;106886;1255;124220;-86
2023/12/08 00:34:13;;;;;;;;;;;;;;;1.07;81.87;101862.49;106873;1258;74683;-85
2023/12/08 00:36:41;;;;;;;;;;;;;;;1.08;81.84;101862.52;106827;1254;125472;-78
2023/12/08 00:39:08;;;;;;;;;;;;;;;1.09;81.88;101861.90;106831;1257;72810;-78
2023/12/08 00:41:35;;;;;;;;;;;;;;;1.09;81.73;101861.08;106671;1257;124632;-84
2023/12/08 00:44:02;;;;;;;;;;;;;;;1.08;81.68;101854.27;106857;1257;61168;-85
2023/12/08 00:46:31;;;;;;;;;;;;;;;1.09;81.85;101855.83;106744;1254;73216;-85
2023/12/08 00:48:57;;;;;;;;;;;;;;;1.08;81.58;101854.40;106686;1254;125384;-85
2023/12/08 00:51:24;;;;;;;;;;;;;;;1.06;81.80;101853.91;106697;1254;71418;-87
2023/12/08 00:53:51;;;;;;;;;;;;;;;1.06;81.68;101855.50;106682;1256;124587;-85
2023/12/08 00:56:17;;;;;;;;;;;;;;;1.10;81.67;101859.39;106831;1254;60248;-86
2023/12/08 00:58:44;;;;;;;;;;;;;;;1.09;81.73;101862.14;106885;1258;74550;-85
2023/12/08 01:01:11;;;;;;;;;;;;;;;1.10;81.73;101864.80;105976;1254;124423;-85
2023/12/08 01:03:38;;;;;;;;;;;;;;;1.11;81.72;101865.39;106258;1254;72712;-85
2023/12/08 01:06:05;;;;;;;;;;;;;;;1.13;81.91;101867.60;106181;1254;124724;-86
2023/12/08 01:08:31;;;;;;;;;;;;;;;1.13;81.78;101867.48;106660;1254;60821;-77
2023/12/08 01:10:58;;;;;;;;;;;;;;;1.13;81.58;101865.85;106645;1258;73805;-77
2023/12/08 01:13:25;;;;;;;;;;;;;;;1.12;81.73;101865.48;106645;1255;124408;-78
2023/12/08 01:15:51;;;;;;;;;;;;;;;1.13;81.76;101866.39;106571;1260;70685;-85
2023/12/08 01:18:18;;;;;;;;;;;;;;;1.12;81.62;101859.05;106604;1256;123853;-84
2023/12/08 01:20:46;;;;;;;;;;;;;;;1.10;81.69;101857.84;106845;1257;61158;-84
2023/12/08 01:23:13;;;;;;;;;;;;;;;1.08;81.57;101862.88;106857;1254;74503;-76
2023/12/08 01:25:39;;;;;;;;;;;;;;;1.08;81.63;101860.46;106714;1254;124545;-76
2023/12/08 01:28:06;;;;;;;;;;;;;;;1.06;81.51;101856.84;106543;1254;71433;-77
2023/12/08 01:30:33;;;;;;;;;;;;;;;1.03;81.56;101865.93;106553;1254;134467;-76
2023/12/08 01:32:59;;;;;;;;;;;;;;;1.01;81.73;101872.66;106035;1257;61405;-76
2023/12/08 01:35:26;;;;;;;;;;;;;;;0.98;81.68;101870.87;106613;1254;73113;-83
2023/12/08 01:37:53;;;;;;;;;;;;;;;0.96;81.87;101866.60;106684;1254;123533;-77
2023/12/08 01:40:20;;;;;;;;;;;;;;;0.94;81.68;101860.53;107072;1259;71420;-77
2023/12/08 01:42:47;;;;;;;;;;;;;;;0.91;81.93;101859.25;106655;1258;124324;-78
2023/12/08 01:45:14;;;;;;;;;;;;;;;0.89;81.89;101862.39;106749;1255;61211;-78
2023/12/08 01:47:41;;;;;;;;;;;;;;;0.86;81.79;101866.67;106646;1256;123505;-85
2023/12/08 01:50:08;;;;;;;;;;;;;;;0.87;81.98;101862.77;106831;1256;64720;-85
2023/12/08 01:52:35;;;;;;;;;;;;;;;0.88;81.88;101861.45;106674;1255;72785;-85
2023/12/08 01:55:02;;;;;;;;;;;;;;;0.89;81.93;101861.56;106729;1254;124577;-79
2023/12/08 01:57:29;;;;;;;;;;;;;;;0.91;81.98;101864.13;106717;1254;60132;-77
2023/12/08 01:59:55;;;;;;;;;;;;;;;0.92;81.93;101865.23;106564;1256;125136;-77
2023/12/08 02:02:22;;;;;;;;;;;;;;;0.93;81.97;101860.10;106589;1254;65504;-77
2023/12/08 02:04:49;;;;;;;;;;;;;;;0.95;81.99;101858.23;106641;1254;72642;-85
2023/12/08 02:07:16;;;;;;;;;;;;;;;0.96;82.00;101859.01;106563;1256;124435;-84
2023/12/08 02:09:42;;;;;;;;;;;;;;;0.97;81.91;101857.70;106815;1254;61449;-85
2023/12/08 02:12:09;;;;;;;;;;;;;;;0.99;81.79;101851.45;106695;1253;124776;-85
2023/12/08 02:14:37;;;;;;;;;;;;;;;0.99;81.93;101857.13;106707;1255;65919;-77
2023/12/08 02:17:11;;;;;;;;;;;;;;;0.98;81.86;101856.05;106789;1254;71703;-85
2023/12/08 02:19:38;;;;;;;;;;;;;;;0.99;81.86;101861.64;106933;1253;124614;-86
2023/12/08 02:22:05;;;;;;;;;;;;;;;1.01;81.82;101865.58;106821;1255;61218;-79
2023/12/08 02:24:32;;;;;;;;;;;;;;;1.04;82.00;101866.02;106554;1254;124960;-78
2023/12/08 02:26:58;;;;;;;;;;;;;;;1.05;81.89;101861.46;106704;1258;66281;-78
2023/12/08 02:29:25;;;;;;;;;;;;;;;1.04;81.48;101860.84;106659;1254;71435;-86
2023/12/08 02:32:00;;;;;;;;;;;;;;;1.06;81.62;101859.60;106578;1256;124817;-86
2023/12/08 02:34:27;;;;;;;;;;;;;;;1.07;81.58;101861.74;106640;1254;61312;-87
2023/12/08 02:36:54;;;;;;;;;;;;;;;1.09;81.66;101860.35;106825;1257;124369;-86
2023/12/08 02:39:20;;;;;;;;;;;;;;;1.11;81.86;101858.15;106594;1254;64918;-86
2023/12/08 02:41:47;;;;;;;;;;;;;;;1.14;81.59;101858.87;106735;1255;124658;-84
2023/12/08 02:44:13;;;;;;;;;;;;;;;1.17;81.75;101855.64;106827;1255;61352;-85
2023/12/08 02:46:40;;;;;;;;;;;;;;;1.18;81.61;101858.64;106776;1255;61456;-84
2023/12/08 02:49:07;;;;;;;;;;;;;;;1.19;81.65;101854.06;106648;1254;124559;-76
2023/12/08 02:51:33;;;;;;;;;;;;;;;1.20;81.35;101859.52;106152;1254;67768;-76
2023/12/08 02:54:00;;;;;;;;;;;;;;;1.19;81.41;101857.21;105823;1254;124798;-77
2023/12/08 02:56:27;;;;;;;;;;;;;;;1.18;81.45;101858.30;105965;1254;61302;-77
2023/12/08 02:58:54;;;;;;;;;;;;;;;1.17;81.53;101860.17;106089;1260;61274;-76
2023/12/08 03:01:20;;;;;;;;;;;;;;;1.16;81.58;101861.33;105853;1260;123808;-77
2023/12/08 03:03:47;;;;;;;;;;;;;;;1.16;81.56;101862.17;106295;1254;65023;-86
2023/12/08 03:06:14;;;;;;;;;;;;;;;1.18;81.64;101860.74;106617;1254;124122;-85
2023/12/08 03:08:41;;;;;;;;;;;;;;;1.16;81.58;101862.20;106848;1253;61795;-86
2023/12/08 03:11:07;;;;;;;;;;;;;;;1.12;81.45;101862.34;106570;1256;61394;-76
2023/12/08 03:13:34;;;;;;;;;;;;;;;1.10;81.51;101861.48;106188;1255;124726;-84
2023/12/08 03:16:00;;;;;;;;;;;;;;;1.10;81.64;101865.77;106301;1254;65198;-86
2023/12/08 03:18:27;;;;;;;;;;;;;;;1.07;81.52;101870.73;106754;1254;123741;-85
2023/12/08 03:20:54;;;;;;;;;;;;;;;1.03;81.51;101875.64;106615;1256;61267;-84
2023/12/08 03:23:20;;;;;;;;;;;;;;;1.01;81.65;101877.73;106834;1258;61134;-85
2023/12/08 03:25:47;;;;;;;;;;;;;;;0.99;81.58;101870.81;106735;1254;123621;-85
2023/12/08 03:28:14;;;;;;;;;;;;;;;0.98;81.67;101867.79;106864;1254;66267;-85
2023/12/08 03:30:40;;;;;;;;;;;;;;;0.98;81.74;101864.30;106675;1259;124037;-84
2023/12/08 03:33:07;;;;;;;;;;;;;;;0.96;81.59;101866.63;106740;1254;61366;-77
2023/12/08 03:35:34;;;;;;;;;;;;;;;0.96;81.71;101867.11;106545;1256;124022;-85
2023/12/08 03:38:00;;;;;;;;;;;;;;;0.95;81.69;101872.95;106806;1254;74795;-86
2023/12/08 03:40:27;;;;;;;;;;;;;;;0.94;81.78;101873.91;106736;1254;64984;-77
2023/12/08 03:42:54;;;;;;;;;;;;;;;0.90;81.51;101869.23;106567;1257;124354;-85
2023/12/08 03:45:20;;;;;;;;;;;;;;;0.88;81.45;101860.44;106763;1259;61198;-77
2023/12/08 03:47:47;;;;;;;;;;;;;;;0.85;81.48;101854.60;105844;1254;124238;-76
2023/12/08 03:50:14;;;;;;;;;;;;;;;0.85;81.58;101849.45;106097;1256;72610;-77
2023/12/08 03:52:40;;;;;;;;;;;;;;;0.85;81.80;101849.11;105956;1257;66290;-79
2023/12/08 03:55:07;;;;;;;;;;;;;;;0.82;81.48;101846.64;105827;1259;124840;-77
2023/12/08 03:57:34;;;;;;;;;;;;;;;0.80;81.57;101848.50;105999;1255;61882;-77
2023/12/08 04:00:01;;;;;;;;;;;;;;;0.77;81.49;101846.27;106579;1254;124759;-77
2023/12/08 04:02:28;;;;;;;;;;;;;;;0.77;81.70;101848.45;106751;1256;73135;-85
2023/12/08 04:04:54;;;;;;;;;;;;;;;0.79;81.82;101846.52;106974;1254;65281;-84
2023/12/08 04:07:21;;;;;;;;;;;;;;;0.80;81.81;101844.52;107015;1255;124789;-85
2023/12/08 04:09:48;;;;;;;;;;;;;;;0.81;81.76;101839.58;107143;1254;61380;-85
2023/12/08 04:12:15;;;;;;;;;;;;;;;0.82;81.73;101831.95;106993;1256;124873;-85
2023/12/08 04:14:41;;;;;;;;;;;;;;;0.81;81.62;101822.38;106975;1254;74725;-84
2023/12/08 04:17:08;;;;;;;;;;;;;;;0.82;81.81;101822.73;106149;1256;65383;-76
2023/12/08 04:19:35;;;;;;;;;;;;;;;0.83;81.88;101821.27;106056;1257;125685;-77
2023/12/08 04:22:02;;;;;;;;;;;;;;;0.84;81.76;101815.80;106153;1254;61175;-79
2023/12/08 04:24:28;;;;;;;;;;;;;;;0.83;81.58;101817.70;106746;1254;124789;-77
2023/12/08 04:26:55;;;;;;;;;;;;;;;0.84;81.71;101815.17;106785;1254;75609;-76
2023/12/08 04:29:22;;;;;;;;;;;;;;;0.83;81.58;101815.39;107139;1257;67722;-78
2023/12/08 04:31:49;;;;;;;;;;;;;;;0.79;81.36;101815.58;107139;1256;124564;-85
2023/12/08 04:34:15;;;;;;;;;;;;;;;0.77;81.62;101814.64;106695;1256;61257;-79
2023/12/08 04:36:42;;;;;;;;;;;;;;;0.76;81.47;101820.36;106733;1254;124984;-78
2023/12/08 04:39:09;;;;;;;;;;;;;;;0.75;81.51;101824.10;106719;1256;74794;-79
2023/12/08 04:41:36;;;;;;;;;;;;;;;0.75;81.61;101822.20;106647;1255;124773;-78
2023/12/08 04:44:03;;;;;;;;;;;;;;;0.73;81.39;101815.86;107665;1256;73514;-77
2023/12/08 04:46:29;;;;;;;;;;;;;;;0.72;81.32;101815.58;107450;1254;60440;-79
2023/12/08 04:48:56;;;;;;;;;;;;;;;0.70;81.44;101817.85;106809;1256;126418;-78
2023/12/08 04:51:23;;;;;;;;;;;;;;;0.69;81.32;101817.74;106490;1255;75883;-80
2023/12/08 04:53:50;;;;;;;;;;;;;;;0.66;81.35;101818.39;106695;1254;124437;-83
2023/12/08 04:56:17;;;;;;;;;;;;;;;0.65;81.35;101818.30;106715;1255;71146;-85
2023/12/08 04:58:43;;;;;;;;;;;;;;;0.65;81.32;101822.27;106817;1256;61132;-80
2023/12/08 05:01:14;;;;;;;;;;;;;;;0.64;81.40;101830.30;106514;1254;123891;-81
2023/12/08 05:03:41;;;;;;;;;;;;;;;0.64;81.30;101833.20;106668;1257;74371;-80
2023/12/08 05:06:08;;;;;;;;;;;;;;;0.62;81.10;101832.99;106494;1255;124419;-86
2023/12/08 05:08:35;;;;;;;;;;;;;;;0.56;81.17;101833.14;106725;1258;70883;-81
2023/12/08 05:11:02;;;;;;;;;;;;;;;0.52;81.08;101828.95;107263;1254;61075;-81
2023/12/08 05:13:29;;;;;;;;;;;;;;;0.48;80.96;101826.55;106684;1254;125849;-81
2023/12/08 05:15:56;;;;;;;;;;;;;;;0.46;81.19;101829.85;106623;1257;74460;-82
2023/12/08 05:18:22;;;;;;;;;;;;;;;0.42;81.04;101826.90;106738;1254;125399;-82
2023/12/08 05:20:49;;;;;;;;;;;;;;;0.40;81.07;101827.23;106618;1256;72551;-82
2023/12/08 05:23:16;;;;;;;;;;;;;;;0.37;81.05;101823.61;106606;1256;61351;-82
2023/12/08 05:25:42;;;;;;;;;;;;;;;0.36;81.20;101827.27;106737;1258;125568;-83
2023/12/08 05:28:09;;;;;;;;;;;;;;;0.33;81.23;101828.80;106661;1254;74024;-83
2023/12/08 05:30:36;;;;;;;;;;;;;;;0.33;81.26;101833.05;106603;1254;127533;-83
2023/12/08 05:33:04;;;;;;;;;;;;;;;0.32;81.20;101833.17;106688;1254;71602;-82
2023/12/08 05:35:30;;;;;;;;;;;;;;;0.30;81.10;101832.82;107223;1254;126395;-82
2023/12/08 05:37:57;;;;;;;;;;;;;;;0.27;81.17;101826.66;107097;1254;60057;-82
2023/12/08 05:40:24;;;;;;;;;;;;;;;0.25;81.21;101829.66;106706;1254;74747;-82
2023/12/08 05:42:50;;;;;;;;;;;;;;;0.26;81.27;101831.59;106756;1254;125152;-82
2023/12/08 05:45:17;;;;;;;;;;;;;;;0.27;81.25;101835.15;106689;1257;72253;-82
2023/12/08 05:47:44;;;;;;;;;;;;;;;0.27;81.26;101837.89;106637;1254;127226;-82
2023/12/08 05:50:11;;;;;;;;;;;;;;;0.27;81.21;101832.74;106736;1259;61349;-83
2023/12/08 05:52:38;;;;;;;;;;;;;;;0.29;81.25;101825.33;106900;1254;74688;-85
2023/12/08 05:55:05;;;;;;;;;;;;;;;0.28;81.08;101823.50;106682;1257;124463;-85
2023/12/08 05:57:31;;;;;;;;;;;;;;;0.26;81.16;101822.32;106919;1254;73242;-83
2023/12/08 05:59:58;;;;;;;;;;;;;;;0.24;81.05;101821.46;106872;1254;126012;-86
2023/12/08 06:02:25;;;;;;;;;;;;;;;0.24;81.13;101825.23;107026;1254;61116;-85
2023/12/08 06:04:51;;;;;;;;;;;;;;;0.25;81.10;101826.88;106711;1259;73377;-83
2023/12/08 06:07:18;;;;;;;;;;;;;;;0.26;81.06;101828.38;106129;1257;126145;-86
2023/12/08 06:09:45;;;;;;;;;;;;;;;0.29;81.01;101831.02;106766;1254;71246;-84
2023/12/08 06:12:11;;;;;;;;;;;;;;;0.30;80.92;101836.79;106716;1254;124804;-85
2023/12/08 06:14:38;;;;;;;;;;;;;;;0.27;80.93;101834.99;107838;1254;61232;-85
2023/12/08 06:17:05;;;;;;;;;;;;;;;0.25;80.91;101835.53;107461;1253;73109;-86
2023/12/08 06:19:31;;;;;;;;;;;;;;;0.26;80.73;101837.11;106790;1258;124942;-78
2023/12/08 06:21:58;;;;;;;;;;;;;;;0.26;80.67;101841.45;106853;1256;72896;-86
2023/12/08 06:24:25;;;;;;;;;;;;;;;0.26;80.86;101840.41;106835;1254;123325;-86
2023/12/08 06:26:51;;;;;;;;;;;;;;;0.26;80.65;101835.98;106731;1254;61267;-86
2023/12/08 06:29:19;;;;;;;;;;;;;;;0.27;80.67;101832.23;106899;1257;75679;-86
2023/12/08 06:31:46;;;;;;;;;;;;;;;0.31;80.94;101834.84;106668;1254;123639;-85
2023/12/08 06:34:13;;;;;;;;;;;;;;;0.33;80.80;101832.61;107026;1254;72705;-86
2023/12/08 06:36:43;;;;;;;;;;;;;;;0.31;80.51;101831.90;106577;1254;124710;-86
2023/12/08 06:39:11;;;;;;;;;;;;;;;0.29;80.63;101830.70;107056;1258;61238;-87
2023/12/08 06:42:12;;;;;;;;;;;;;;;0.28;80.55;101833.55;106613;1255;123846;-86
2023/12/08 06:44:38;;;;;;;;;;;;;;;0.25;80.47;101836.04;106853;1256;67240;-87
2023/12/08 06:47:05;;;;;;;;;;;;;;;0.24;80.49;101832.02;106806;1256;71487;-87
2023/12/08 06:49:32;;;;;;;;;;;;;;;0.23;80.53;101830.52;106461;1260;123963;-82
2023/12/08 06:51:59;;;;;;;;;;;;;;;0.20;80.53;101834.95;106713;1255;199259;-82
2023/12/08 06:54:26;;;;;;;;;;;;;;;0.18;80.40;101839.27;106774;1259;123916;-82
2023/12/08 06:56:52;;;;;;;;;;;;;;;0.16;80.54;101846.34;106937;1257;65457;-82
2023/12/08 06:59:19;;;;;;;;;;;;;;;0.13;80.45;101850.38;107005;1255;71840;-81
2023/12/08 07:01:46;;;;;;;;;;;;;;;0.06;80.14;101856.56;106808;1254;123933;-86
2023/12/08 07:04:13;;;;;;;;;;;;;;;0.02;80.21;101857.60;106791;1256;61379;-81
2023/12/08 07:06:40;;;;;;;;;;;;;;;0.01;80.31;101856.26;106607;1255;124691;-81
2023/12/08 07:09:09;;;;;;;;;;;;;;;-0.02;80.24;101859.48;106865;1256;65980;-81
2023/12/08 07:11:35;;;;;;;;;;;;;;;0.01;80.33;101857.52;106728;1256;125518;-81
2023/12/08 07:14:02;;;;;;;;;;;;;;;0.02;80.25;101850.14;106849;1254;61371;-81
2023/12/08 07:16:29;;;;;;;;;;;;;;;0.02;80.07;101848.05;106759;1255;59298;-81
2023/12/08 07:18:55;;;;;;;;;;;;;;;-0.01;80.16;101848.75;106744;1257;124564;-82
2023/12/08 07:21:22;;;;;;;;;;;;;;;-0.01;80.16;101841.31;106674;1260;66955;-82
2023/12/08 07:23:49;;;;;;;;;;;;;;;0.00;80.15;101833.27;106423;1257;125139;-82
2023/12/08 07:26:16;;;;;;;;;;;;;;;0.02;80.13;101830.81;106568;1256;61386;-87
2023/12/08 07:28:43;;;;;;;;;;;;;;;0.02;80.09;101829.77;106665;1258;61236;-81
2023/12/08 07:31:12;;;;;;;;;;;;;;;0.01;80.10;101826.61;106606;1254;124844;-85
2023/12/08 07:33:38;;;;;;;;;;;;;;;0.03;80.08;101825.02;106671;1256;66284;-86
2023/12/08 07:36:06;;;;;;;;;;;;;;;0.03;79.92;101824.16;106639;1254;124560;-86
2023/12/08 07:38:32;;;;;;;;;;;;;;;0.04;79.95;101824.29;106609;1257;61370;-87
2023/12/08 07:40:59;;;;;;;;;;;;;;;0.05;79.93;101821.77;106430;1255;61331;-86
2023/12/08 07:43:26;;;;;;;;;;;;;;;0.06;79.88;101828.42;106469;1255;124351;-87
2023/12/08 07:45:53;;;;;;;;;;;;;;;0.11;79.94;101835.70;106504;1256;64962;-87
2023/12/08 07:48:20;;;;;;;;;;;;;;;0.14;79.98;101831.50;106456;1256;123667;-87
2023/12/08 07:50:47;;;;;;;;;;;;;;;0.14;79.96;101827.39;106340;1256;61263;-86
2023/12/08 07:53:14;;;;;;;;;;;;;;;0.10;79.74;101822.42;106840;1254;60097;-82
2023/12/08 07:55:41;;;;;;;;;;;;;;;0.12;79.70;101825.17;106585;1256;123919;-82
2023/12/08 07:58:07;;;;;;;;;;;;;;;0.11;79.72;101825.16;106611;1256;66152;-82
2023/12/08 08:00:34;;;;;;;;;;;;;;;0.05;79.42;101831.43;106609;1259;124541;-82
2023/12/08 08:03:01;;;;;;;;;;;;;;;0.04;79.45;101838.26;106670;1258;61149;-83
2023/12/08 08:05:28;;;;;;;;;;;;;;;0.02;79.40;101834.95;106658;1256;61249;-87
2023/12/08 08:07:54;;;;;;;;;;;;;;;0.01;79.45;101833.48;106654;1257;74619;-89
2023/12/08 08:10:21;;;;;;;;;;;;;;;0.02;79.50;101830.47;106825;1255;66251;-86
2023/12/08 08:12:48;;;;;;;;;;;;;;;0.05;79.44;101832.27;106693;1254;124406;-85
2023/12/08 08:15:15;;;;;;;;;;;;;;;0.05;79.37;101832.26;106621;1254;61185;-85
2023/12/08 08:17:42;;;;;;;;;;;;;;;0.04;79.50;101834.43;106649;1257;124959;-85
2023/12/08 08:20:09;;;;;;;;;;;;;;;0.06;79.40;101832.52;106469;1255;73180;-86
2023/12/08 08:22:35;;;;;;;;;;;;;;;0.05;79.24;101826.73;106635;1257;64936;-87
2023/12/08 08:25:02;;;;;;;;;;;;;;;0.07;79.35;101826.77;106617;1257;124433;-86
2023/12/08 08:27:29;;;;;;;;;;;;;;;0.13;79.42;101832.63;106528;1259;61214;-87
2023/12/08 08:29:56;;;;;;;;;;;;;;;0.16;79.42;101836.38;106395;1258;124594;-86
2023/12/08 08:32:23;;;;;;;;;;;;;;;0.22;79.26;101845.41;106693;1255;74668;-87
2023/12/08 08:34:51;;;;;;;;;;;;;;;0.24;79.17;101845.57;106543;1256;66089;-86
2023/12/08 08:37:22;;;;;;;;;;;;;;;0.24;79.03;101847.70;106394;1258;124783;-87
2023/12/08 08:39:49;;;;;;;;;;;;;;;0.28;79.32;101858.23;106563;1255;61394;-86
2023/12/08 08:42:16;;;;;;;;;;;;;;;0.33;79.17;101862.41;106614;1258;123916;-88
2023/12/08 08:44:44;;;;;;;;;;;;;;;0.35;79.06;101860.52;106468;1257;75733;-87
2023/12/08 08:47:12;;;;;;;;;;;;;;;0.39;79.00;101859.33;106686;1258;65954;-82
2023/12/08 08:49:38;;;;;;;;;;;;;;;0.42;78.89;101855.74;106750;1259;124204;-82
2023/12/08 08:52:05;;;;;;;;;;;;;;;0.42;78.64;101858.88;106599;1257;61390;-82
2023/12/08 08:54:31;;;;;;;;;;;;;;;0.44;78.83;101861.10;106609;1260;126370;-82
2023/12/08 08:56:58;;;;;;;;;;;;;;;0.46;78.67;101853.66;106690;1257;74500;-80
2023/12/08 08:59:25;;;;;;;;;;;;;;;0.42;78.34;101853.20;106746;1257;66422;-83
2023/12/08 09:01:51;;;;;;;;;;;;;;;0.41;78.32;101848.27;106535;1260;124119;-83
2023/12/08 09:04:18;;;;;;;;;;;;;;;0.35;78.16;101836.92;106662;1257;61267;-81
2023/12/08 09:06:44;;;;;;;;;;;;;;;0.29;77.93;101826.19;106663;1255;124374;-82
2023/12/08 09:09:11;;;;;;;;;;;;;;;0.24;78.12;101820.03;106640;1256;73382;-86
2023/12/08 09:11:38;;;;;;;;;;;;;;;0.24;78.13;101815.73;106245;1256;124776;-88
2023/12/08 09:14:05;;;;;;;;;;;;;;;0.27;78.30;101810.98;106541;1256;70393;-87
2023/12/08 09:16:32;;;;;;;;;;;;;;;0.27;78.24;101806.19;106596;1256;61334;-83
2023/12/08 09:18:58;;;;;;;;;;;;;;;0.28;78.24;101797.65;106715;1258;124438;-82
2023/12/08 09:21:25;;;;;;;;;;;;;;;0.31;78.23;101795.29;106494;1257;74709;-82
2023/12/08 09:23:51;;;;;;;;;;;;;;;0.35;78.22;101793.91;106576;1255;124882;-82
2023/12/08 09:26:18;;;;;;;;;;;;;;;0.45;78.42;101791.90;106549;1257;72774;-81
2023/12/08 09:28:46;;;;;;;;;;;;;;;0.53;78.16;101792.95;106730;1256;61265;-81
2023/12/08 09:31:13;;;;;;;;;;;;;;;0.60;78.21;101794.18;106516;1256;124653;-86
2023/12/08 09:33:41;;;;;;;;;;;;;;;0.62;78.21;101787.84;106575;1256;74703;-81
2023/12/08 09:36:08;;;;;;;;;;;;;;;0.66;78.04;101782.77;106673;1259;124443;-81
2023/12/08 09:38:35;;;;;;;;;;;;;;;0.70;77.89;101781.74;106925;1253;71150;-82
2023/12/08 09:41:04;;;;;;;;;;;;;;;0.73;77.73;101782.50;106616;1253;60654;-82
2023/12/08 09:43:33;;;;;;;;;;;;;;;0.73;77.77;101786.30;106565;1254;124949;-82
2023/12/08 09:46:00;;;;;;;;;;;;;;;0.73;77.49;101787.88;106899;1257;74552;-82
2023/12/08 09:48:26;;;;;;;;;;;;;;;0.72;77.35;101787.60;106607;1254;123987;-82
2023/12/08 09:50:53;;;;;;;;;;;;;;;0.68;77.38;101785.88;106883;1259;72521;-87
2023/12/08 09:53:21;;;;;;;;;;;;;;;0.70;77.39;101783.23;106675;1255;61622;-86
2023/12/08 09:55:48;;;;;;;;;;;;;;;0.74;77.56;101778.75;106607;1258;123678;-86
2023/12/08 09:58:14;;;;;;;;;;;;;;;0.78;77.39;101778.04;106763;1258;74669;-82
2023/12/08 10:00:42;;;;;;;;;;;;;;;0.82;77.24;101778.83;106571;1254;125165;-87
2023/12/08 10:03:09;;;;;;;;;;;;;;;0.81;77.30;101779.67;106532;1254;71844;-86
2023/12/08 10:05:36;;;;;;;;;;;;;;;0.81;77.10;101782.61;106440;1256;124084;-85
2023/12/08 10:08:03;;;;;;;;;;;;;;;0.77;77.01;101785.62;106796;1254;61350;-81
2023/12/08 10:10:30;;;;;;;;;;;;;;;0.77;77.07;101787.44;106750;1254;74711;-87
2023/12/08 10:12:59;;;;;;;;;;;;;;;0.77;77.11;101784.68;106592;1257;123975;-82
2023/12/08 10:15:26;;;;;;;;;;;;;;;0.75;76.84;101783.85;106867;1258;71413;-81
2023/12/08 10:17:52;;;;;;;;;;;;;;;0.72;76.76;101785.88;106708;1259;124757;-81
2023/12/08 10:20:20;;;;;;;;;;;;;;;0.65;76.71;101784.58;106679;1255;61162;-81
2023/12/08 10:22:50;;;;;;;;;;;;;;;0.70;77.01;101783.98;106798;1254;74675;-82
2023/12/08 10:25:20;;;;;;;;;;;;;;;0.76;77.07;101792.43;106597;1256;125013;-81
2023/12/08 10:27:51;;;;;;;;;;;;;;;0.79;76.78;101795.76;106620;1255;72396;-81
2023/12/08 10:30:18;;;;;;;;;;;;;;;0.84;76.99;101794.89;106680;1253;124861;-87
2023/12/08 10:32:45;;;;;;;;;;;;;;;0.86;76.99;101800.27;106867;1259;61367;-82
2023/12/08 10:35:12;;;;;;;;;;;;;;;0.87;76.70;101808.83;106538;1261;74952;-82
2023/12/08 10:37:42;;;;;;;;;;;;;;;0.88;76.65;101805.94;106611;1254;124659;-87
2023/12/08 10:40:15;;;;;;;;;;;;;;;0.87;76.48;101801.23;106469;1261;72686;-87
2023/12/08 10:42:43;;;;;;;;;;;;;;;0.83;76.27;101795.05;106631;1255;124418;-87
2023/12/08 10:45:10;;;;;;;;;;;;;;;0.85;76.35;101791.20;106611;1257;61246;-87
2023/12/08 10:47:40;;;;;;;;;;;;;;;0.89;76.52;101793.31;106394;1261;124798;-86
2023/12/08 10:50:08;;;;;;;;;;;;;;;0.96;76.40;101788.67;106452;1260;66023;-87
2023/12/08 10:52:35;;;;;;;;;;;;;;;1.01;76.47;101783.27;106599;1254;71869;-87
2023/12/08 10:55:02;;;;;;;;;;;;;;;1.06;76.39;101781.97;106633;1254;123813;-87
2023/12/08 10:57:29;;;;;;;;;;;;;;;1.07;76.11;101782.63;106692;1254;61249;-87
2023/12/08 10:59:56;;;;;;;;;;;;;;;1.10;76.14;101779.18;106550;1256;124001;-86
2023/12/08 11:02:24;;;;;;;;;;;;;;;1.08;76.10;101780.45;106487;1254;65383;-86
2023/12/08 11:04:53;;;;;;;;;;;;;;;1.00;75.89;101781.53;106823;1256;71431;-86
2023/12/08 11:07:22;;;;;;;;;;;;;;;0.94;75.69;101783.31;106632;1254;123720;-85
2023/12/08 11:09:49;;;;;;;;;;;;;;;0.87;75.58;101782.40;106595;1254;59541;-86
2023/12/08 11:12:16;;;;;;;;;;;;;;;0.87;75.75;101782.88;106422;1260;125121;-86
2023/12/08 11:14:50;;;;;;;;;;;;;;;0.87;75.99;101786.38;106776;1258;66340;-86
2023/12/08 11:17:21;;;;;;;;;;;;;;;0.88;75.86;101780.26;106680;1254;72722;-88
2023/12/08 11:19:47;;;;;;;;;;;;;;;0.88;75.84;101770.70;106376;1255;125338;-86
2023/12/08 11:22:14;;;;;;;;;;;;;;;0.84;75.63;101763.16;106622;1254;61164;-87
2023/12/08 11:24:41;;;;;;;;;;;;;;;0.84;75.65;101760.52;106402;1256;123916;-87
2023/12/08 11:27:11;;;;;;;;;;;;;;;0.81;75.69;101762.01;106563;1257;66178;-86
2023/12/08 11:29:42;;;;;;;;;;;;;;;0.80;75.61;101757.98;106637;1258;124580;-88
2023/12/08 11:32:09;;;;;;;;;;;;;;;0.79;75.83;101752.74;106786;1254;61172;-82
2023/12/08 11:34:35;;;;;;;;;;;;;;;0.77;75.70;101745.50;106857;1254;59265;-83
2023/12/08 11:37:02;;;;;;;;;;;;;;;0.77;75.63;101743.93;106835;1259;124554;-83
2023/12/08 11:39:40;;;;;;;;;;;;;;;0.73;75.54;101739.83;106890;1254;66260;-83
2023/12/08 11:42:10;;;;;;;;;;;;;;;0.65;75.54;101737.10;106357;1255;124886;-82
2023/12/08 11:44:38;;;;;;;;;;;;;;;0.64;75.55;101740.80;106662;1256;61167;-82
2023/12/08 11:47:05;;;;;;;;;;;;;;;0.67;75.57;101740.15;106682;1256;61437;-82
2023/12/08 11:49:32;;;;;;;;;;;;;;;0.65;75.46;101742.46;106635;1256;124586;-82
2023/12/08 11:52:11;;;;;;;;;;;;;;;0.58;75.35;101740.30;106668;1254;66150;-86
2023/12/08 11:54:58;;;;;;;;;;;;;;;0.51;75.39;101737.86;106531;1257;124082;-86
2023/12/08 11:57:24;;;;;;;;;;;;;;;0.38;75.07;101736.48;106539;1258;61446;-87
2023/12/08 11:59:51;;;;;;;;;;;;;;;0.26;75.20;101734.60;106642;1257;124037;-86
2023/12/08 12:02:18;;;;;;;;;;;;;;;0.16;75.22;101735.34;106631;1254;74945;-86
2023/12/08 12:04:45;;;;;;;;;;;;;;;0.11;75.49;101732.52;106769;1259;64994;-86
2023/12/08 12:07:12;;;;;;;;;;;;;;;0.09;75.61;101727.73;106765;1254;123891;-87
2023/12/08 12:09:39;;;;;;;;;;;;;;;0.09;75.67;101727.17;106644;1253;61302;-87
2023/12/08 12:12:09;;;;;;;;;;;;;;;0.04;75.67;101723.13;106514;1255;124022;-87
2023/12/08 12:14:36;;;;;;;;;;;;;;;0.04;75.88;101725.59;106660;1255;74718;-87
2023/12/08 12:17:02;;;;;;;;;;;;;;;0.05;75.90;101725.50;106751;1255;66230;-82
2023/12/08 12:19:30;;;;;;;;;;;;;;;0.01;75.66;101726.67;106439;1256;123695;-86
2023/12/08 12:21:56;;;;;;;;;;;;;;;-0.07;75.74;101734.48;106610;1255;61375;-87
2023/12/08 12:24:23;;;;;;;;;;;;;;;-0.12;75.71;101736.63;106619;1254;125881;-82
2023/12/08 12:26:50;;;;;;;;;;;;;;;-0.16;75.95;101736.66;106767;1256;73676;-86
2023/12/08 12:29:16;;;;;;;;;;;;;;;-0.16;75.84;101737.70;106603;1256;65000;-86
2023/12/08 12:31:44;;;;;;;;;;;;;;;-0.19;75.88;101736.75;106382;1256;124813;-86
2023/12/08 12:34:10;;;;;;;;;;;;;;;-0.22;75.80;101735.55;106567;1260;61208;-84